Time;durP1;ratioP1;P1;durP2;ratioP2;P2;SDS_P1;SDS_P2;PMS_P1;PMS_P2;Temp;Humidity;BMP_temperature;BMP_pressure;BME280_temperature;BME280_humidity;BME280_pressure;Samples;Min_cycle;Max_cycle;Signal;HPM_P1;HPM_P2
2023/12/31 00:00:00;;;;;;;0.80;0.80;;;;;;;-146.42;100.00;61981.06;4997344;28;20165;-66
2023/12/31 00:02:25;;;;;;;0.53;0.53;;;;;;;-146.42;100.00;61981.06;4998484;28;20181;-65
2023/12/31 00:04:51;;;;;;;1.57;1.57;;;;;;;-146.42;100.00;61981.06;4999725;28;20181;-66
2023/12/31 00:07:16;;;;;;;4.60;4.30;;;;;;;-146.42;100.00;61981.06;4999426;28;20580;-66
2023/12/31 00:09:42;;;;;;;1.97;1.00;;;;;;;-146.42;100.00;61981.06;4996377;28;20344;-66
2023/12/31 00:12:07;;;;;;;0.40;0.40;;;;;;;-146.42;100.00;61981.06;5000632;28;20191;-66
2023/12/31 00:14:33;;;;;;;0.50;0.50;;;;;;;-146.42;100.00;61981.06;4997228;28;20578;-66
2023/12/31 00:16:58;;;;;;;0.43;0.43;;;;;;;-146.42;100.00;61981.06;4998503;28;20631;-65
2023/12/31 00:19:25;;;;;;;2.07;1.97;;;;;;;-146.42;100.00;61981.06;5000464;28;20201;-65
2023/12/31 00:21:50;;;;;;;0.47;0.47;;;;;;;-146.42;100.00;61981.06;4998648;28;20247;-66
2023/12/31 00:24:15;;;;;;;1.93;1.93;;;;;;;-146.42;100.00;61981.06;4997320;28;20177;-66
2023/12/31 00:26:41;;;;;;;30.17;16.97;;;;;;;-146.42;100.00;61981.06;4998360;28;20189;-66
2023/12/31 00:29:06;;;;;;;0.43;0.43;;;;;;;-146.42;100.00;61981.06;4999551;28;20261;-66
2023/12/31 00:31:32;;;;;;;1.83;1.73;;;;;;;-146.42;100.00;61981.06;4990398;28;20181;-67
2023/12/31 00:33:57;;;;;;;0.97;0.97;;;;;;;-146.42;100.00;61981.06;5007514;28;20573;-66
2023/12/31 00:36:24;;;;;;;0.40;0.40;;;;;;;-146.42;100.00;61981.06;5012274;28;20186;-66
2023/12/31 00:38:50;;;;;;;0.77;0.77;;;;;;;-146.42;100.00;61981.06;5011237;28;20175;-66
2023/12/31 00:41:15;;;;;;;0.40;0.40;;;;;;;-146.42;100.00;61981.06;5013196;28;20176;-66
2023/12/31 00:43:41;;;;;;;0.50;0.50;;;;;;;-146.42;100.00;61981.06;5013269;28;20187;-66
2023/12/31 00:46:06;;;;;;;0.63;0.63;;;;;;;-146.42;100.00;61981.06;5013204;28;20181;-66
2023/12/31 00:48:32;;;;;;;0.40;0.40;;;;;;;-146.42;100.00;61981.06;5013165;28;20691;-66
2023/12/31 00:50:57;;;;;;;0.40;0.40;;;;;;;-146.42;100.00;61981.06;5012890;28;20181;-66
2023/12/31 00:53:23;;;;;;;4.13;2.43;;;;;;;-146.42;100.00;61981.06;5013125;28;20179;-66
2023/12/31 00:55:48;;;;;;;3.33;3.17;;;;;;;-146.42;100.00;61981.06;5013091;28;20187;-66
2023/12/31 00:58:15;;;;;;;1.23;1.10;;;;;;;-146.42;100.00;61981.06;5013274;28;20184;-66
2023/12/31 01:00:41;;;;;;;2.60;2.50;;;;;;;-146.42;100.00;61981.06;5013247;28;20988;-66
2023/12/31 01:03:06;;;;;;;0.67;0.67;;;;;;;-146.42;100.00;61981.06;5012968;28;20187;-66
2023/12/31 01:05:32;;;;;;;4.23;2.50;;;;;;;-146.42;100.00;61981.06;5012891;28;20211;-66
2023/12/31 01:07:57;;;;;;;1.47;1.47;;;;;;;-146.42;100.00;61981.06;5012859;28;20688;-66
2023/12/31 01:10:23;;;;;;;1.37;1.37;;;;;;;-146.42;100.00;61981.06;4993166;28;20216;-66
2023/12/31 01:12:48;;;;;;;0.80;0.80;;;;;;;-146.42;100.00;61981.06;4993287;28;20181;-66
2023/12/31 01:15:14;;;;;;;0.30;0.30;;;;;;;-146.42;100.00;61981.06;4993123;28;20195;-66
2023/12/31 01:17:39;;;;;;;0.40;0.40;;;;;;;-146.42;100.00;61981.06;4993114;28;20184;-66
2023/12/31 01:20:06;;;;;;;0.40;0.40;;;;;;;-146.42;100.00;61981.06;5010721;28;20189;-66
2023/12/31 01:22:33;;;;;;;0.40;0.40;;;;;;;-146.42;100.00;61981.06;5012458;28;20192;-67
2023/12/31 01:24:58;;;;;;;0.70;0.70;;;;;;;-146.42;100.00;61981.06;5012548;28;20177;-66
2023/12/31 01:27:24;;;;;;;0.57;0.57;;;;;;;-146.42;100.00;61981.06;5012340;28;20215;-66
2023/12/31 01:29:49;;;;;;;0.50;0.50;;;;;;;-146.42;100.00;61981.06;5012419;28;20568;-66
2023/12/31 01:32:15;;;;;;;0.40;0.40;;;;;;;-146.42;100.00;61981.06;5012337;28;20271;-66
2023/12/31 01:34:40;;;;;;;0.40;0.40;;;;;;;-146.42;100.00;61981.06;5012260;28;20180;-66
2023/12/31 01:37:06;;;;;;;0.40;0.40;;;;;;;-146.42;100.00;61981.06;5012378;28;20880;-66
2023/12/31 01:39:31;;;;;;;0.47;0.47;;;;;;;-146.42;100.00;61981.06;5012548;28;20287;-66
2023/12/31 01:41:57;;;;;;;9.47;8.90;;;;;;;-146.42;100.00;61981.06;4994476;28;20222;-66
2023/12/31 01:44:22;;;;;;;0.40;0.40;;;;;;;-146.42;100.00;61981.06;5012167;28;20176;-66
2023/12/31 01:46:48;;;;;;;0.43;0.43;;;;;;;-146.42;100.00;61981.06;5011168;28;21667;-67
2023/12/31 01:49:13;;;;;;;0.70;0.70;;;;;;;-146.42;100.00;61981.06;5011894;28;20269;-67
2023/12/31 01:51:39;;;;;;;0.47;0.47;;;;;;;-146.42;100.00;61981.06;5011864;28;20173;-67
2023/12/31 01:54:06;;;;;;;0.80;0.80;;;;;;;-146.42;100.00;61981.06;5012088;28;20266;-67
2023/12/31 01:56:37;;;;;;;0.40;0.40;;;;;;;-146.42;100.00;61981.06;5011997;28;20283;-67
2023/12/31 01:59:03;;;;;;;0.40;0.40;;;;;;;-146.42;100.00;61981.06;5011869;28;20176;-66
2023/12/31 02:01:32;;;;;;;2.70;2.53;;;;;;;-146.42;100.00;61981.06;5011946;28;20187;-66
2023/12/31 02:03:58;;;;;;;0.50;0.50;;;;;;;-146.42;100.00;61981.06;5011775;28;20173;-66
2023/12/31 02:06:23;;;;;;;0.50;0.50;;;;;;;-146.42;100.00;61981.06;5011822;28;20246;-66
2023/12/31 02:08:49;;;;;;;0.47;0.47;;;;;;;-146.42;100.00;61981.06;5011640;28;20569;-66
2023/12/31 02:11:16;;;;;;;0.43;0.43;;;;;;;-146.42;100.00;61981.06;5011591;28;20224;-66
2023/12/31 02:13:42;;;;;;;0.43;0.43;;;;;;;-146.42;100.00;61981.06;5011878;28;20251;-66
2023/12/31 02:16:16;;;;;;;0.60;0.60;;;;;;;-146.42;100.00;61981.06;5011664;28;20263;-66
2023/12/31 02:18:42;;;;;;;0.40;0.40;;;;;;;-146.42;100.00;61981.06;5011446;28;20258;-66
2023/12/31 02:21:09;;;;;;;0.47;0.47;;;;;;;-146.42;100.00;61981.06;5011500;28;20231;-66
2023/12/31 02:23:35;;;;;;;0.40;0.40;;;;;;;-146.42;100.00;61981.06;4993893;28;20185;-66
2023/12/31 02:26:09;;;;;;;0.50;0.50;;;;;;;-146.42;100.00;61981.06;5011229;28;20177;-66
2023/12/31 02:28:34;;;;;;;0.43;0.43;;;;;;;-146.42;100.00;61981.06;5011337;28;20240;-66
2023/12/31 02:31:00;;;;;;;0.40;0.40;;;;;;;-146.42;100.00;61981.06;5011548;28;20278;-66
2023/12/31 02:33:26;;;;;;;0.40;0.40;;;;;;;-146.42;100.00;61981.06;5002464;28;20975;-66
2023/12/31 02:35:52;;;;;;;0.50;0.50;;;;;;;-146.42;100.00;61981.06;4991646;28;20185;-66
2023/12/31 02:38:17;;;;;;;5.67;5.20;;;;;;;-146.42;100.00;61981.06;4991409;28;20172;-66
2023/12/31 02:40:43;;;;;;;0.40;0.40;;;;;;;-146.42;100.00;61981.06;4991773;28;20522;-66
2023/12/31 02:43:09;;;;;;;0.50;0.50;;;;;;;-146.42;100.00;61981.06;4991699;28;20539;-66
2023/12/31 02:45:34;;;;;;;0.50;0.50;;;;;;;-146.42;100.00;61981.06;4991554;28;20199;-66
2023/12/31 02:48:00;;;;;;;0.40;0.40;;;;;;;-146.42;100.00;61981.06;5008935;28;20347;-66
2023/12/31 02:50:25;;;;;;;0.50;0.50;;;;;;;-146.42;100.00;61981.06;4993363;28;20555;-66
2023/12/31 02:52:53;;;;;;;0.40;0.40;;;;;;;-146.42;100.00;61981.06;4991422;28;20185;-66
2023/12/31 02:55:19;;;;;;;0.50;0.50;;;;;;;-146.42;100.00;61981.06;4991310;28;20279;-66
2023/12/31 02:57:44;;;;;;;0.50;0.50;;;;;;;-146.42;100.00;61981.06;4991119;28;20220;-66
2023/12/31 03:00:10;;;;;;;0.50;0.50;;;;;;;-146.42;100.00;61981.06;4991280;28;20189;-64
2023/12/31 03:02:37;;;;;;;0.50;0.50;;;;;;;-146.42;100.00;61981.06;4991097;28;20192;-65
2023/12/31 03:05:02;;;;;;;0.50;0.50;;;;;;;-146.42;100.00;61981.06;4991190;28;20180;-65
2023/12/31 03:07:28;;;;;;;0.70;0.70;;;;;;;-146.42;100.00;61981.06;4991162;28;20711;-66
2023/12/31 03:09:53;;;;;;;0.50;0.50;;;;;;;-146.42;100.00;61981.06;4991070;28;20738;-66
2023/12/31 03:12:19;;;;;;;0.40;0.40;;;;;;;-146.42;100.00;61981.06;4991205;28;20181;-66
2023/12/31 03:14:44;;;;;;;0.40;0.40;;;;;;;-146.42;100.00;61981.06;4973811;28;20188;-66
2023/12/31 03:17:09;;;;;;;0.40;0.40;;;;;;;-146.42;100.00;61981.06;4991285;28;20184;-66
2023/12/31 03:19:36;;;;;;;0.43;0.43;;;;;;;-146.42;100.00;61981.06;4990937;28;20629;-66
2023/12/31 03:22:02;;;;;;;0.50;0.50;;;;;;;-146.42;100.00;61981.06;4991137;28;20181;-65
2023/12/31 03:24:28;;;;;;;0.40;0.40;;;;;;;-146.42;100.00;61981.06;4990956;28;20204;-66
2023/12/31 03:26:53;;;;;;;0.50;0.50;;;;;;;-146.42;100.00;61981.06;4991116;28;20200;-66
2023/12/31 03:29:19;;;;;;;0.60;0.60;;;;;;;-146.42;100.00;61981.06;5004602;28;20254;-66
2023/12/31 03:31:44;;;;;;;0.40;0.40;;;;;;;-146.42;100.00;61981.06;5010483;28;20647;-66
2023/12/31 03:34:10;;;;;;;0.50;0.50;;;;;;;-146.42;100.00;61981.06;5010463;28;20240;-66
2023/12/31 03:36:35;;;;;;;0.70;0.70;;;;;;;-146.42;100.00;61981.06;5010286;28;20600;-66
2023/12/31 03:39:01;;;;;;;0.40;0.40;;;;;;;-146.42;100.00;61981.06;5010379;28;20723;-66
2023/12/31 03:41:27;;;;;;;0.53;0.53;;;;;;;-146.42;100.00;61981.06;5010392;28;20629;-66
2023/12/31 03:43:52;;;;;;;0.50;0.50;;;;;;;-146.42;100.00;61981.06;5010328;28;20263;-66
2023/12/31 03:46:17;;;;;;;0.50;0.50;;;;;;;-146.42;100.00;61981.06;5010358;28;20559;-67
2023/12/31 03:48:43;;;;;;;2.17;2.10;;;;;;;-146.42;100.00;61981.06;5010281;28;20330;-66
2023/12/31 03:51:09;;;;;;;8.90;8.13;;;;;;;-146.42;100.00;61981.06;5010541;28;20538;-66
2023/12/31 03:53:35;;;;;;;2.07;2.00;;;;;;;-146.42;100.00;61981.06;5010524;28;20914;-66
2023/12/31 03:56:00;;;;;;;0.50;0.50;;;;;;;-146.42;100.00;61981.06;5010298;28;20187;-66
2023/12/31 03:58:26;;;;;;;0.50;0.50;;;;;;;-146.42;100.00;61981.06;5010194;28;20176;-66
2023/12/31 04:00:51;;;;;;;0.73;0.73;;;;;;;-146.42;100.00;61981.06;5010136;28;20239;-66
2023/12/31 04:03:17;;;;;;;0.60;0.60;;;;;;;-146.42;100.00;61981.06;5010265;28;20565;-66
2023/12/31 04:05:42;;;;;;;0.60;0.60;;;;;;;-146.42;100.00;61981.06;5010214;28;20176;-66
2023/12/31 04:08:08;;;;;;;7.93;7.57;;;;;;;-146.42;100.00;61981.06;5010080;28;20579;-66
2023/12/31 04:10:34;;;;;;;0.80;0.80;;;;;;;-146.42;100.00;61981.06;5011290;28;20311;-66
2023/12/31 04:12:59;;;;;;;8.90;7.80;;;;;;;-146.42;100.00;61981.06;4996264;28;20195;-66
2023/12/31 04:15:25;;;;;;;0.93;0.93;;;;;;;-146.42;100.00;61981.06;5013750;28;20263;-66
2023/12/31 04:17:52;;;;;;;1.90;1.90;;;;;;;-146.42;100.00;61981.06;5014165;28;20177;-66
2023/12/31 04:20:17;;;;;;;0.60;0.60;;;;;;;-146.42;100.00;61981.06;5013840;28;20264;-66
2023/12/31 04:22:43;;;;;;;0.40;0.40;;;;;;;-146.42;100.00;61981.06;5013553;28;20267;-66
2023/12/31 04:25:09;;;;;;;2.30;2.20;;;;;;;-146.42;100.00;61981.06;5013749;28;20560;-66
2023/12/31 04:27:38;;;;;;;0.60;0.60;;;;;;;-146.42;100.00;61981.06;5013589;28;20200;-66
2023/12/31 04:30:04;;;;;;;8.90;1.90;;;;;;;-146.42;100.00;61981.06;5013581;28;20172;-66
2023/12/31 04:32:30;;;;;;;0.50;0.50;;;;;;;-146.42;100.00;61981.06;5013563;28;20184;-66
2023/12/31 04:34:55;;;;;;;1.53;1.53;;;;;;;-146.42;100.00;61981.06;5013340;28;20187;-66
2023/12/31 04:37:20;;;;;;;0.50;0.50;;;;;;;-146.42;100.00;61981.06;5013339;28;20630;-66
2023/12/31 04:39:46;;;;;;;0.50;0.50;;;;;;;-146.42;100.00;61981.06;5013718;28;20287;-66
2023/12/31 04:42:11;;;;;;;2.87;2.77;;;;;;;-146.42;100.00;61981.06;5013383;28;20231;-66
2023/12/31 04:44:37;;;;;;;8.40;3.80;;;;;;;-146.42;100.00;61981.06;5013266;28;20691;-66
2023/12/31 04:47:03;;;;;;;0.50;0.50;;;;;;;-146.42;100.00;61981.06;5013213;28;20181;-66
2023/12/31 04:49:28;;;;;;;1.03;1.03;;;;;;;-146.42;100.00;61981.06;5013022;28;20269;-66
2023/12/31 04:51:54;;;;;;;0.40;0.40;;;;;;;-146.42;100.00;61981.06;5013302;28;20184;-66
2023/12/31 04:54:19;;;;;;;0.40;0.40;;;;;;;-146.42;100.00;61981.06;5013131;28;20180;-66
2023/12/31 04:56:45;;;;;;;0.50;0.50;;;;;;;-146.42;100.00;61981.06;5013207;28;20267;-66
2023/12/31 04:59:10;;;;;;;0.50;0.50;;;;;;;-146.42;100.00;61981.06;5012914;28;20199;-66
2023/12/31 05:01:35;;;;;;;0.63;0.63;;;;;;;-146.42;100.00;61981.06;5012956;28;20183;-66
2023/12/31 05:04:01;;;;;;;0.80;0.80;;;;;;;-146.42;100.00;61981.06;5012950;28;20180;-66
2023/12/31 05:06:27;;;;;;;0.40;0.40;;;;;;;-146.42;100.00;61981.06;5012955;28;20173;-66
2023/12/31 05:08:55;;;;;;;0.40;0.40;;;;;;;-146.42;100.00;61981.06;5012811;28;20591;-66
2023/12/31 05:11:23;;;;;;;1.63;1.63;;;;;;;-146.42;100.00;61981.06;5012866;28;20228;-66
2023/12/31 05:13:49;;;;;;;0.97;0.97;;;;;;;-146.42;100.00;61981.06;5012691;28;20263;-66
2023/12/31 05:16:14;;;;;;;0.50;0.50;;;;;;;-146.42;100.00;61981.06;5012413;28;20275;-65
2023/12/31 05:18:43;;;;;;;1.27;1.27;;;;;;;-146.42;100.00;61981.06;5012698;28;20176;-65
2023/12/31 05:21:09;;;;;;;0.60;0.60;;;;;;;-146.42;100.00;61981.06;5012602;28;20220;-66
2023/12/31 05:23:35;;;;;;;0.40;0.40;;;;;;;-146.42;100.00;61981.06;5012487;28;20177;-66
2023/12/31 05:26:00;;;;;;;0.40;0.40;;;;;;;-146.42;100.00;61981.06;5012781;28;20180;-66
2023/12/31 05:28:26;;;;;;;0.50;0.50;;;;;;;-146.42;100.00;61981.06;5012253;28;20203;-66
2023/12/31 05:30:51;;;;;;;0.60;0.60;;;;;;;-146.42;100.00;61981.06;5012317;28;20177;-66
2023/12/31 05:33:17;;;;;;;0.50;0.50;;;;;;;-146.42;100.00;61981.06;5011992;28;20242;-66
2023/12/31 05:35:42;;;;;;;1.03;1.03;;;;;;;-146.42;100.00;61981.06;5012096;28;20181;-66
2023/12/31 05:38:08;;;;;;;0.60;0.60;;;;;;;-146.42;100.00;61981.06;5012522;28;20255;-66
2023/12/31 05:40:33;;;;;;;0.50;0.50;;;;;;;-146.42;100.00;61981.06;5012338;28;20179;-66
2023/12/31 05:42:59;;;;;;;0.50;0.50;;;;;;;-146.42;100.00;61981.06;5012266;28;20192;-66
2023/12/31 05:45:24;;;;;;;22.03;20.13;;;;;;;-146.42;100.00;61981.06;5012289;28;20179;-66
2023/12/31 05:47:50;;;;;;;0.50;0.50;;;;;;;-146.42;100.00;61981.06;5011922;28;20209;-66
2023/12/31 05:50:16;;;;;;;0.53;0.53;;;;;;;-146.42;100.00;61981.06;5012136;28;20180;-66
2023/12/31 05:52:42;;;;;;;0.67;0.67;;;;;;;-146.42;100.00;61981.06;5012101;28;20180;-66
2023/12/31 05:55:08;;;;;;;0.50;0.50;;;;;;;-146.42;100.00;61981.06;5011904;28;20187;-66
2023/12/31 05:57:33;;;;;;;0.43;0.43;;;;;;;-146.42;100.00;61981.06;5011996;28;20181;-66
2023/12/31 06:00:00;;;;;;;3.13;3.03;;;;;;;-146.42;100.00;61981.06;5011799;28;20181;-66
2023/12/31 06:02:25;;;;;;;3.37;3.23;;;;;;;-146.42;100.00;61981.06;5011526;28;20697;-66
2023/12/31 06:04:51;;;;;;;0.50;0.50;;;;;;;-146.42;100.00;61981.06;5011615;28;20199;-65
2023/12/31 06:07:17;;;;;;;1.60;1.60;;;;;;;-146.42;100.00;61981.06;5011784;28;20982;-65
2023/12/31 06:09:42;;;;;;;0.50;0.50;;;;;;;-146.42;100.00;61981.06;5011513;28;20243;-65
2023/12/31 06:12:08;;;;;;;0.80;0.80;;;;;;;-146.42;100.00;61981.06;5011669;28;20172;-65
2023/12/31 06:14:33;;;;;;;2.23;2.03;;;;;;;-146.42;100.00;61981.06;5011494;28;20763;-65
2023/12/31 06:16:58;;;;;;;1.33;1.33;;;;;;;-146.42;100.00;61981.06;5011372;28;20191;-65
2023/12/31 06:19:25;;;;;;;0.80;0.80;;;;;;;-146.42;100.00;61981.06;5011344;28;20184;-66
2023/12/31 06:21:52;;;;;;;0.67;0.67;;;;;;;-146.42;100.00;61981.06;5011319;28;20658;-66
2023/12/31 06:24:17;;;;;;;0.50;0.50;;;;;;;-146.42;100.00;61981.06;5011462;28;20188;-66
2023/12/31 06:26:43;;;;;;;0.40;0.40;;;;;;;-146.42;100.00;61981.06;5011473;28;20706;-66
2023/12/31 06:29:08;;;;;;;0.50;0.50;;;;;;;-146.42;100.00;61981.06;4993722;28;20216;-66
2023/12/31 06:31:34;;;;;;;0.60;0.60;;;;;;;-146.42;100.00;61981.06;5011267;28;20184;-66
2023/12/31 06:33:59;;;;;;;5.23;4.93;;;;;;;-146.42;100.00;61981.06;5010800;28;20640;-66
2023/12/31 06:36:25;;;;;;;0.90;0.90;;;;;;;-146.42;100.00;61981.06;5011267;28;20172;-66
2023/12/31 06:38:51;;;;;;;0.83;0.83;;;;;;;-146.42;100.00;61981.06;5010901;28;20188;-66
2023/12/31 06:41:19;;;;;;;1.20;1.17;;;;;;;-146.42;100.00;61981.06;5011017;28;20242;-66
2023/12/31 06:43:44;;;;;;;0.50;0.50;;;;;;;-146.42;100.00;61981.06;5011220;28;20206;-66
2023/12/31 06:46:10;;;;;;;1.00;1.00;;;;;;;-146.42;100.00;61981.06;5011095;28;20211;-66
2023/12/31 06:48:35;;;;;;;0.60;0.60;;;;;;;-146.42;100.00;61981.06;5011113;28;20216;-66
2023/12/31 06:51:01;;;;;;;0.60;0.60;;;;;;;-146.42;100.00;61981.06;5011082;28;20192;-66
2023/12/31 06:53:26;;;;;;;1.40;1.17;;;;;;;-146.42;100.00;61981.06;5010955;28;20246;-67
2023/12/31 06:55:52;;;;;;;1.03;1.03;;;;;;;-146.42;100.00;61981.06;5010765;28;20181;-67
2023/12/31 06:58:17;;;;;;;0.70;0.70;;;;;;;-146.42;100.00;61981.06;5010983;28;20184;-67
2023/12/31 07:00:43;;;;;;;2.03;1.93;;;;;;;-146.42;100.00;61981.06;5010621;28;20180;-67
2023/12/31 07:03:08;;;;;;;4.17;3.97;;;;;;;-146.42;100.00;61981.06;5007620;28;20215;-66
2023/12/31 07:05:34;;;;;;;3.93;3.73;;;;;;;-146.42;100.00;61981.06;4991227;28;20636;-67
2023/12/31 07:07:59;;;;;;;0.67;0.67;;;;;;;-146.42;100.00;61981.06;4990687;28;20584;-67
2023/12/31 07:10:24;;;;;;;2.13;2.00;;;;;;;-146.42;100.00;61981.06;4990723;28;20220;-67
2023/12/31 07:12:50;;;;;;;32.00;28.70;;;;;;;-146.42;100.00;61981.06;4991109;28;20189;-66
2023/12/31 07:15:16;;;;;;;22.27;18.13;;;;;;;-146.42;100.00;61981.06;4990889;28;20629;-66
2023/12/31 07:17:42;;;;;;;11.67;10.60;;;;;;;-146.42;100.00;61981.06;4991156;28;20283;-67
2023/12/31 07:20:08;;;;;;;5.80;5.37;;;;;;;-146.42;100.00;61981.06;4990630;28;20640;-66
2023/12/31 07:22:33;;;;;;;4.97;4.57;;;;;;;-146.42;100.00;61981.06;4990960;28;20189;-66
2023/12/31 07:25:02;;;;;;;11.53;10.47;;;;;;;-146.42;100.00;61981.06;4990931;28;20180;-67
2023/12/31 07:27:29;;;;;;;3.20;3.10;;;;;;;-146.42;100.00;61981.06;4990422;28;20180;-67
2023/12/31 07:29:54;;;;;;;2.67;2.57;;;;;;;-146.42;100.00;61981.06;4990503;28;20192;-68
2023/12/31 07:32:20;;;;;;;0.70;0.70;;;;;;;-146.42;100.00;61981.06;5001820;28;20184;-66
2023/12/31 07:34:45;;;;;;;1.00;1.00;;;;;;;-146.42;100.00;61981.06;5010486;28;20182;-67
2023/12/31 07:37:11;;;;;;;1.00;1.00;;;;;;;-146.42;100.00;61981.06;5010076;28;20184;-67
2023/12/31 07:39:36;;;;;;;1.67;1.67;;;;;;;-146.42;100.00;61981.06;5010002;28;20181;-67
2023/12/31 07:42:04;;;;;;;12.03;4.93;;;;;;;-146.42;100.00;61981.06;5010065;28;20188;-67
2023/12/31 07:44:29;;;;;;;6.63;5.67;;;;;;;-146.42;100.00;61981.06;5009832;28;20184;-67
2023/12/31 07:46:56;;;;;;;1.07;1.07;;;;;;;-146.42;100.00;61981.06;5013686;28;20183;-67
2023/12/31 07:49:21;;;;;;;6.93;6.30;;;;;;;-146.42;100.00;61981.06;5013825;28;20204;-67
2023/12/31 07:51:48;;;;;;;1.73;1.63;;;;;;;-146.42;100.00;61981.06;5013808;28;20538;-67
2023/12/31 07:54:13;;;;;;;2.70;2.28;;;;;;;-146.42;100.00;61981.06;5014068;28;20176;-67
2023/12/31 07:56:41;;;;;;;2.33;2.22;;;;;;;-146.42;100.00;61981.06;5014116;28;20206;-68
2023/12/31 07:59:07;;;;;;;3.30;2.05;;;;;;;-146.42;100.00;61981.06;5013795;28;20176;-67
2023/12/31 08:01:33;;;;;;;4.70;4.47;;;;;;;-146.42;100.00;61981.06;5013622;28;20176;-67
2023/12/31 08:03:58;;;;;;;6.70;6.15;;;;;;;-146.42;100.00;61981.06;5013716;28;20181;-68
2023/12/31 08:06:24;;;;;;;0.90;0.88;;;;;;;-146.42;100.00;61981.06;5013821;28;20226;-68
2023/12/31 08:08:49;;;;;;;1.85;1.75;;;;;;;-146.42;100.00;61981.06;5013691;28;20250;-67
2023/12/31 08:11:15;;;;;;;1.80;1.80;;;;;;;-146.42;100.00;61981.06;5013633;28;20235;-67
2023/12/31 08:13:41;;;;;;;2.97;2.78;;;;;;;-146.42;100.00;61981.06;5013810;28;20195;-67
2023/12/31 08:16:07;;;;;;;3.30;3.10;;;;;;;-146.42;100.00;61981.06;5013653;28;20628;-67
2023/12/31 08:18:34;;;;;;;2.20;2.10;;;;;;;-146.42;100.00;61981.06;5013544;28;20194;-67
2023/12/31 08:20:59;;;;;;;6.30;3.95;;;;;;;-146.42;100.00;61981.06;5013872;28;20192;-67
2023/12/31 08:23:25;;;;;;;1.45;1.45;;;;;;;-146.42;100.00;61981.06;5013363;28;20248;-66
2023/12/31 08:25:50;;;;;;;1.40;1.40;;;;;;;-146.42;100.00;61981.06;5013580;28;20184;-67
2023/12/31 08:28:16;;;;;;;1.10;1.05;;;;;;;-146.42;100.00;61981.06;5013605;28;20196;-67
2023/12/31 08:30:41;;;;;;;1.65;1.63;;;;;;;-146.42;100.00;61981.06;5006921;28;20184;-67
2023/12/31 08:33:07;;;;;;;1.40;1.30;;;;;;;-146.42;100.00;61981.06;5013188;28;20183;-67
2023/12/31 08:35:32;;;;;;;1.15;1.15;;;;;;;-146.42;100.00;61981.06;5013143;28;20704;-67
2023/12/31 08:37:58;;;;;;;4.50;4.15;;;;;;;-146.42;100.00;61981.06;5012937;28;20172;-67
2023/12/31 08:40:23;;;;;;;5.38;2.25;;;;;;;-146.42;100.00;61981.06;5003638;28;20264;-67
2023/12/31 08:42:49;;;;;;;9.85;4.07;;;;;;;-146.42;100.00;61981.06;4993436;28;20535;-67
2023/12/31 08:45:14;;;;;;;1.13;1.13;;;;;;;-146.42;100.00;61981.06;5010805;28;20256;-66
2023/12/31 08:47:40;;;;;;;1.98;1.90;;;;;;;-146.42;100.00;61981.06;5012709;28;20234;-66
2023/12/31 08:50:09;;;;;;;0.68;0.68;;;;;;;-146.42;100.00;61981.06;5012557;28;20178;-66
2023/12/31 08:52:43;;;;;;;0.70;0.70;;;;;;;-146.42;100.00;61981.06;5012810;28;20177;-66
2023/12/31 08:55:10;;;;;;;1.83;1.73;;;;;;;-146.42;100.00;61981.06;5012342;28;20249;-66
2023/12/31 08:57:37;;;;;;;4.20;3.85;;;;;;;-146.42;100.00;61981.06;4995546;28;20649;-66
2023/12/31 09:00:03;;;;;;;1.20;1.13;;;;;;;-146.42;100.00;61981.06;4993027;28;20180;-66
2023/12/31 09:02:29;;;;;;;1.38;0.57;;;;;;;-146.42;100.00;61981.06;4992737;28;20180;-67
2023/12/31 09:04:54;;;;;;;1.77;1.50;;;;;;;-146.42;100.00;61981.06;4993398;28;20181;-66
2023/12/31 09:07:20;;;;;;;0.95;0.95;;;;;;;-146.42;100.00;61981.06;4992866;28;20270;-66
2023/12/31 09:09:45;;;;;;;1.05;1.05;;;;;;;-146.42;100.00;61981.06;4992514;28;20300;-67
2023/12/31 09:12:11;;;;;;;0.60;0.60;;;;;;;-146.42;100.00;61981.06;4991947;28;20586;-66
2023/12/31 09:14:36;;;;;;;1.77;1.73;;;;;;;-146.42;100.00;61981.06;4991624;28;20177;-67
2023/12/31 09:17:02;;;;;;;0.40;0.40;;;;;;;-146.42;100.00;61981.06;4991872;28;20200;-67
2023/12/31 09:19:27;;;;;;;1.10;1.00;;;;;;;-146.42;100.00;61981.06;4991447;28;20212;-67
2023/12/31 09:21:53;;;;;;;3.93;3.60;;;;;;;-146.42;100.00;61981.06;4991824;28;20881;-66
2023/12/31 09:24:18;;;;;;;3.60;3.13;;;;;;;-146.42;100.00;61981.06;4991584;28;20177;-66
2023/12/31 09:26:44;;;;;;;0.50;0.50;;;;;;;-146.42;100.00;61981.06;4991559;28;20180;-66
2023/12/31 09:29:09;;;;;;;2.33;1.90;;;;;;;-146.42;100.00;61981.06;5003114;28;20616;-67
2023/12/31 09:31:37;;;;;;;4.70;2.63;;;;;;;-146.42;100.00;61981.06;5004803;28;20241;-67
2023/12/31 09:34:04;;;;;;;0.70;0.70;;;;;;;-146.42;100.00;61981.06;5006231;28;20177;-67
2023/12/31 09:36:29;;;;;;;1.63;1.57;;;;;;;-146.42;100.00;61981.06;5010885;28;20196;-67
2023/12/31 09:38:55;;;;;;;0.50;0.50;;;;;;;-146.42;100.00;61981.06;4991596;28;20192;-67
2023/12/31 09:41:23;;;;;;;1.77;1.43;;;;;;;-146.42;100.00;61981.06;4991424;28;20252;-66
2023/12/31 09:43:54;;;;;;;1.60;1.60;;;;;;;-146.42;100.00;61981.06;4991011;28;20239;-67
2023/12/31 09:46:22;;;;;;;2.30;2.20;;;;;;;-146.42;100.00;61981.06;4991406;28;20205;-67
2023/12/31 09:48:51;;;;;;;0.80;0.80;;;;;;;-146.42;100.00;61981.06;4991172;28;20672;-67
2023/12/31 09:51:18;;;;;;;1.13;1.13;;;;;;;-146.42;100.00;61981.06;5011007;28;20204;-66
2023/12/31 09:53:51;;;;;;;2.90;2.70;;;;;;;-146.42;100.00;61981.06;5011081;28;20287;-66
2023/12/31 09:56:17;;;;;;;3.83;2.13;;;;;;;-146.42;100.00;61981.06;5010835;28;20647;-66
2023/12/31 09:58:43;;;;;;;1.53;1.53;;;;;;;-146.42;100.00;61981.06;5010737;28;20173;-66
2023/12/31 10:01:09;;;;;;;2.90;2.80;;;;;;;-146.42;100.00;61981.06;5010848;28;20191;-66
2023/12/31 10:03:38;;;;;;;2.73;1.87;;;;;;;-146.42;100.00;61981.06;5010162;28;20176;-67
2023/12/31 10:06:06;;;;;;;10.23;3.23;;;;;;;-146.42;100.00;61981.06;5010111;28;20177;-66
2023/12/31 10:08:32;;;;;;;1.20;1.20;;;;;;;-146.42;100.00;61981.06;5009011;28;20208;-66
2023/12/31 10:11:01;;;;;;;2.40;2.20;;;;;;;-146.42;100.00;61981.06;4960810;28;1438284;-66
2023/12/31 10:13:28;;;;;;;10.90;3.03;;;;;;;-146.42;100.00;61981.06;5011039;28;20196;-66
2023/12/31 10:15:53;;;;;;;0.80;0.80;;;;;;;-146.42;100.00;61981.06;5011313;28;20175;-66
2023/12/31 10:18:19;;;;;;;5.20;4.30;;;;;;;-146.42;100.00;61981.06;5007082;28;20184;-66
2023/12/31 10:20:44;;;;;;;5.10;4.20;;;;;;;-146.42;100.00;61981.06;5020441;28;20228;-66
2023/12/31 10:23:10;;;;;;;0.50;0.50;;;;;;;-146.42;100.00;61981.06;5017739;28;20278;-66
2023/12/31 10:25:35;;;;;;;0.90;0.90;;;;;;;-146.42;100.00;61981.06;5009876;28;20263;-66
2023/12/31 10:28:04;;;;;;;1.13;1.03;;;;;;;-146.42;100.00;61981.06;5008600;28;20512;-66
2023/12/31 10:30:29;;;;;;;0.60;0.60;;;;;;;-146.42;100.00;61981.06;5018803;28;20176;-66
2023/12/31 10:33:07;;;;;;;0.70;0.70;;;;;;;-146.42;100.00;61981.06;5011387;28;20202;-66
2023/12/31 10:35:33;;;;;;;0.67;0.67;;;;;;;-146.42;100.00;61981.06;5014820;28;20199;-66
2023/12/31 10:38:06;;;;;;;0.83;0.83;;;;;;;-146.42;100.00;61981.06;4993536;28;20169;-65
2023/12/31 10:40:35;;;;;;;0.67;0.67;;;;;;;-146.42;100.00;61981.06;5010673;28;20200;-66
2023/12/31 10:43:07;;;;;;;1.43;1.17;;;;;;;-146.42;100.00;61981.06;5010682;28;20267;-66
2023/12/31 10:45:33;;;;;;;0.90;0.90;;;;;;;-146.42;100.00;61981.06;4993351;28;20187;-66
2023/12/31 10:48:01;;;;;;;0.40;0.40;;;;;;;-146.42;100.00;61981.06;5011170;28;20255;-66
2023/12/31 10:50:28;;;;;;;1.30;1.30;;;;;;;-146.42;100.00;61981.06;5010892;28;20188;-66
2023/12/31 10:52:57;;;;;;;0.80;0.80;;;;;;;-146.42;100.00;61981.06;5010608;28;20183;-66
2023/12/31 10:55:23;;;;;;;1.50;0.93;;;;;;;-146.42;100.00;61981.06;5010774;28;20238;-65
2023/12/31 10:57:50;;;;;;;0.80;0.80;;;;;;;-146.42;100.00;61981.06;5010744;28;20237;-67
2023/12/31 11:00:18;;;;;;;0.50;0.50;;;;;;;-146.42;100.00;61981.06;5010555;28;20263;-66
2023/12/31 11:02:44;;;;;;;1.17;1.07;;;;;;;-146.42;100.00;61981.06;5010649;28;20652;-66